Washington, District of Columbia
Current Conditions -  °F | °C
As of 3:52 AM on Friday 28 Nov 2014 (Local Time) from KDCA Reporting Station
Clear Clear  
Wind Chill: 31°   Ceiling: Unl
Heat Index: 35°   Visibility: 10mi
Dew Point: 21°   Wind: 5mph
Humidity: 57%   Direction: 280°W
Pressure: 30.23"   Gusts: NA
Location:  38.89°N, 77.03°W
Report Text: KDCA 280852Z 28004KT 10SM CLR 02/M06 A3023 RMK AO2 SLP235 T00171061 51011
Loading
Personal Weather Stations






























Interactive Weather Map New forecast layout! Learn more

10-Day Weather Forecast

Advertisements
Track Severe Weather on mobile